Time;durP1;ratioP1;P1;durP2;ratioP2;P2;SDS_P1;SDS_P2;PMS_P1;PMS_P2;Temp;Humidity;BMP_temperature;BMP_pressure;BME280_temperature;BME280_humidity;BME280_pressure;Samples;Min_cycle;Max_cycle;Signal;HPM_P1;HPM_P2
2021/01/19 00:00:04;;;;;;;3.35;2.10;;;10.30;99.90;;;;;;5003795;28;20304;-53
2021/01/19 00:02:35;;;;;;;2.50;2.30;;;10.20;99.90;;;;;;5003109;28;20218;-52
2021/01/19 00:05:08;;;;;;;3.53;3.22;;;10.20;99.90;;;;;;5003129;28;20231;-53
2021/01/19 00:07:39;;;;;;;2.20;2.10;;;10.20;99.90;;;;;;5001330;28;20209;-51
2021/01/19 00:10:10;;;;;;;2.85;2.65;;;10.20;99.90;;;;;;4983911;28;20213;-53
2021/01/19 00:13:05;;;;;;;3.25;2.95;;;10.10;99.90;;;;;;4983208;28;20221;-52
2021/01/19 00:15:35;;;;;;;2.92;2.72;;;10.10;99.90;;;;;;4975653;28;20242;-53
2021/01/19 00:18:08;;;;;;;3.17;2.60;;;10.00;99.90;;;;;;5000088;28;20255;-55
2021/01/19 00:20:39;;;;;;;4.30;2.60;;;9.90;99.90;;;;;;5002373;28;20216;-52
2021/01/19 00:23:12;;;;;;;2.75;2.55;;;9.80;99.90;;;;;;4996445;28;20199;-55
2021/01/19 00:25:45;;;;;;;5.35;2.80;;;9.80;99.90;;;;;;5001685;28;20232;-51
2021/01/19 00:28:21;;;;;;;3.83;2.90;;;9.70;99.90;;;;;;4985448;28;20197;-53
2021/01/19 00:30:51;;;;;;;3.75;2.83;;;9.70;99.90;;;;;;4999965;28;20240;-48
2021/01/19 00:33:21;;;;;;;3.10;2.80;;;9.70;99.90;;;;;;5005548;28;20198;-52
2021/01/19 00:35:53;;;;;;;3.63;3.33;;;9.60;99.90;;;;;;4991263;28;20208;-51
2021/01/19 00:38:29;;;;;;;5.15;4.10;;;9.50;99.90;;;;;;4990736;28;20291;-52
2021/01/19 00:41:04;;;;;;;4.38;3.95;;;9.50;99.90;;;;;;4978943;28;20196;-50
2021/01/19 00:43:37;;;;;;;3.70;3.05;;;9.50;99.90;;;;;;4985646;28;20232;-50
2021/01/19 00:46:07;;;;;;;3.70;3.25;;;9.40;99.90;;;;;;4985116;28;20228;-50
2021/01/19 00:48:37;;;;;;;4.22;3.25;;;9.30;99.90;;;;;;4981931;28;20201;-52
2021/01/19 00:51:09;;;;;;;3.90;3.50;;;9.30;99.90;;;;;;4976281;28;20197;-51
2021/01/19 00:53:40;;;;;;;4.55;3.90;;;9.20;99.90;;;;;;4969848;28;20198;-53
2021/01/19 00:56:10;;;;;;;9.38;6.55;;;9.20;99.90;;;;;;4973431;28;20206;-49
2021/01/19 00:58:40;;;;;;;3.60;3.30;;;9.20;99.90;;;;;;4980022;28;20268;-53
2021/01/19 01:01:10;;;;;;;5.25;3.45;;;9.10;99.90;;;;;;4975423;28;20194;-53
2021/01/19 01:03:40;;;;;;;4.22;3.83;;;9.10;99.90;;;;;;4989474;28;20271;-54
2021/01/19 01:06:11;;;;;;;4.38;3.97;;;9.10;99.90;;;;;;4983597;28;20228;-50
2021/01/19 01:08:42;;;;;;;4.10;3.75;;;9.10;99.90;;;;;;4983323;28;20211;-53
2021/01/19 01:11:12;;;;;;;3.70;3.40;;;9.00;99.90;;;;;;4970978;28;20231;-53
2021/01/19 01:13:46;;;;;;;4.80;3.90;;;8.90;99.90;;;;;;4989104;28;20300;-48
2021/01/19 01:16:17;;;;;;;4.82;3.85;;;8.90;99.90;;;;;;4985642;28;20267;-52
2021/01/19 01:18:49;;;;;;;4.47;4.07;;;8.80;99.90;;;;;;4985743;28;20212;-50
2021/01/19 01:21:19;;;;;;;4.45;4.05;;;8.70;99.90;;;;;;4969260;28;20205;-53
2021/01/19 01:23:53;;;;;;;6.75;3.80;;;8.60;99.90;;;;;;4985171;28;20235;-53
2021/01/19 01:26:24;;;;;;;4.93;4.47;;;8.60;99.90;;;;;;4983679;28;20235;-52
2021/01/19 01:28:54;;;;;;;5.35;3.90;;;8.50;99.90;;;;;;4982511;28;20200;-49
2021/01/19 01:31:25;;;;;;;5.38;4.50;;;8.40;99.90;;;;;;4981416;28;20233;-54
2021/01/19 01:33:57;;;;;;;7.35;4.38;;;8.40;99.90;;;;;;4988493;28;20734;-51
2021/01/19 01:36:30;;;;;;;4.47;3.70;;;8.30;99.90;;;;;;4992892;28;20291;-52
2021/01/19 01:39:04;;;;;;;4.75;4.35;;;8.30;99.90;;;;;;4991845;28;20196;-52
2021/01/19 01:41:34;;;;;;;5.72;4.75;;;8.20;99.90;;;;;;4988064;28;20573;-53
2021/01/19 01:44:04;;;;;;;4.90;4.50;;;8.20;99.90;;;;;;4980276;28;20201;-51
2021/01/19 01:46:37;;;;;;;6.40;4.93;;;8.20;99.90;;;;;;4985401;28;20240;-49
2021/01/19 01:49:07;;;;;;;5.53;5.03;;;8.10;99.90;;;;;;4986250;28;20688;-53
2021/01/19 01:51:38;;;;;;;6.28;4.85;;;8.00;99.90;;;;;;4985378;28;20227;-48
2021/01/19 01:54:09;;;;;;;7.95;5.65;;;8.00;99.90;;;;;;4982641;28;20197;-51
2021/01/19 01:56:40;;;;;;;5.88;5.38;;;8.10;99.90;;;;;;4983070;28;20228;-51
2021/01/19 01:59:12;;;;;;;5.10;4.63;;;8.10;99.90;;;;;;4993208;28;20275;-50
2021/01/19 02:01:42;;;;;;;6.07;5.47;;;8.10;99.90;;;;;;4974759;28;20196;-52
2021/01/19 02:04:12;;;;;;;7.15;5.88;;;8.00;99.90;;;;;;4975783;28;20284;-51
2021/01/19 02:06:42;;;;;;;6.40;5.90;;;8.00;99.90;;;;;;4983109;28;20279;-53
2021/01/19 02:09:23;;;;;;;7.65;6.85;;;7.90;99.90;;;;;;4981843;28;20220;-52
2021/01/19 02:12:16;;;;;;;7.30;6.47;;;7.80;99.90;;;;;;4984509;28;20291;-51
2021/01/19 02:14:55;;;;;;;6.88;6.28;;;7.80;99.90;;;;;;4987115;28;20212;-53
2021/01/19 02:17:35;;;;;;;6.25;5.55;;;7.80;99.90;;;;;;5001739;28;20214;-52
2021/01/19 02:20:47;;;;;;;7.18;6.47;;;7.70;99.90;;;;;;5005181;28;20195;-50
2021/01/19 02:23:31;;;;;;;7.03;6.30;;;7.70;99.90;;;;;;4981869;28;20206;-50
2021/01/19 02:26:33;;;;;;;7.70;7.00;;;7.60;99.90;;;;;;4970806;28;20299;-52
2021/01/19 02:29:20;;;;;;;6.78;6.13;;;7.60;99.90;;;;;;4995867;28;20211;-52
2021/01/19 02:32:12;;;;;;;7.25;6.25;;;7.50;99.90;;;;;;5002371;28;20209;-50
2021/01/19 02:34:52;;;;;;;9.85;6.55;;;7.50;99.90;;;;;;4976433;28;20232;-49
2021/01/19 02:37:28;;;;;;;8.20;6.43;;;7.50;99.90;;;;;;4984554;28;20311;-49
2021/01/19 02:40:05;;;;;;;7.28;6.55;;;7.40;99.90;;;;;;4985011;28;20217;-53
2021/01/19 02:42:44;;;;;;;8.57;7.70;;;7.40;99.90;;;;;;4983875;28;20215;-53
2021/01/19 02:45:16;;;;;;;8.30;7.07;;;7.30;99.90;;;;;;4981229;28;20224;-51
2021/01/19 02:47:47;;;;;;;8.93;7.68;;;7.30;99.90;;;;;;5003898;28;20274;-51
2021/01/19 02:50:17;;;;;;;9.57;8.68;;;7.30;99.90;;;;;;4990932;28;20197;-53
2021/01/19 02:52:48;;;;;;;8.48;7.75;;;7.20;99.90;;;;;;4984031;28;20650;-50
2021/01/19 02:55:19;;;;;;;8.30;7.40;;;7.20;99.90;;;;;;4976650;28;20213;-53
2021/01/19 02:58:05;;;;;;;8.57;7.68;;;7.20;99.90;;;;;;4984529;28;20205;-53
2021/01/19 03:00:45;;;;;;;9.75;8.85;;;7.20;99.90;;;;;;4991668;28;20235;-57
2021/01/19 03:03:16;;;;;;;8.98;8.07;;;7.20;99.90;;;;;;5000256;28;20199;-57
2021/01/19 03:05:48;;;;;;;12.63;8.75;;;7.30;99.90;;;;;;4977981;28;20673;-54
2021/01/19 03:08:20;;;;;;;9.10;8.20;;;7.30;99.90;;;;;;4995412;28;20282;-54
2021/01/19 03:10:51;;;;;;;8.52;7.65;;;7.20;99.90;;;;;;4979585;28;20236;-53
2021/01/19 03:13:22;;;;;;;9.15;8.23;;;7.10;99.90;;;;;;4978846;28;20211;-54
2021/01/19 03:16:06;;;;;;;9.90;8.90;;;7.00;99.90;;;;;;4964745;29;20205;-53
2021/01/19 03:18:39;;;;;;;12.55;9.82;;;6.90;99.90;;;;;;4964527;29;20217;-54
2021/01/19 03:21:10;;;;;;;9.60;8.60;;;6.90;99.90;;;;;;4965043;29;20200;-51
2021/01/19 03:23:41;;;;;;;9.93;8.93;;;6.90;99.90;;;;;;4969841;28;20224;-53
2021/01/19 03:26:14;;;;;;;9.30;8.40;;;6.90;99.90;;;;;;4975804;28;20616;-51
2021/01/19 03:28:44;;;;;;;10.30;9.30;;;6.80;99.90;;;;;;4981798;28;20206;-53
2021/01/19 03:31:14;;;;;;;10.93;9.82;;;6.80;99.90;;;;;;4981082;28;20251;-54
2021/01/19 03:33:48;;;;;;;11.48;10.25;;;6.70;99.90;;;;;;4996696;28;20263;-53
2021/01/19 03:36:18;;;;;;;10.93;9.82;;;6.70;99.90;;;;;;5003436;28;20735;-52
2021/01/19 03:38:48;;;;;;;10.07;9.18;;;6.70;99.90;;;;;;4988130;28;20208;-53
2021/01/19 03:41:18;;;;;;;11.73;10.63;;;6.60;99.90;;;;;;4980662;28;20205;-53
2021/01/19 03:43:48;;;;;;;10.27;9.07;;;6.60;99.90;;;;;;4978069;28;20630;-53
2021/01/19 03:46:18;;;;;;;13.50;12.20;;;6.50;99.90;;;;;;4982523;28;20233;-52
2021/01/19 03:48:50;;;;;;;14.07;12.55;;;6.50;99.90;;;;;;4991176;28;20196;-53
2021/01/19 03:51:20;;;;;;;14.85;13.35;;;6.60;99.90;;;;;;4985664;28;20266;-53
2021/01/19 03:53:50;;;;;;;15.50;13.30;;;6.60;99.90;;;;;;4987614;28;20611;-53
2021/01/19 03:56:20;;;;;;;12.13;10.90;;;6.60;99.90;;;;;;4975547;28;20217;-53
2021/01/19 03:58:50;;;;;;;13.60;11.82;;;6.60;99.90;;;;;;4973604;28;20212;-51
2021/01/19 04:01:20;;;;;;;14.05;12.40;;;6.50;99.90;;;;;;4979701;28;20224;-54
2021/01/19 04:03:51;;;;;;;13.88;12.38;;;6.50;99.90;;;;;;4983522;28;20582;-51
2021/01/19 04:06:21;;;;;;;13.75;12.35;;;6.40;99.90;;;;;;4985946;28;20225;-52
2021/01/19 04:08:56;;;;;;;11.80;10.60;;;6.30;99.90;;;;;;4989026;28;20739;-53
2021/01/19 04:11:26;;;;;;;17.15;12.20;;;6.30;99.90;;;;;;4983198;28;20258;-52
2021/01/19 04:13:59;;;;;;;10.93;9.82;;;6.20;99.90;;;;;;4974180;28;20232;-52
2021/01/19 04:16:43;;;;;;;11.75;10.60;;;6.10;99.90;;;;;;4986466;28;20209;-53
2021/01/19 04:19:14;;;;;;;11.02;9.82;;;6.00;99.90;;;;;;4987316;28;20299;-54
2021/01/19 04:21:44;;;;;;;12.95;11.55;;;5.90;99.90;;;;;;4983525;28;20253;-54
2021/01/19 04:24:14;;;;;;;12.80;11.30;;;5.90;99.90;;;;;;5006731;28;20274;-55
2021/01/19 04:26:44;;;;;;;13.88;11.75;;;6.00;99.90;;;;;;4993933;28;20228;-54
2021/01/19 04:29:14;;;;;;;14.05;12.02;;;6.00;99.90;;;;;;4991525;28;20768;-53
2021/01/19 04:31:44;;;;;;;12.75;10.13;;;6.00;99.90;;;;;;4986238;28;20208;-50
2021/01/19 04:34:18;;;;;;;15.82;14.18;;;5.90;99.90;;;;;;4987228;28;20280;-53
2021/01/19 04:36:49;;;;;;;18.85;16.70;;;5.90;99.90;;;;;;4985366;28;20190;-54
2021/01/19 04:39:22;;;;;;;14.93;12.43;;;5.90;99.90;;;;;;4986543;28;20208;-54
2021/01/19 04:41:54;;;;;;;23.00;17.25;;;6.00;99.90;;;;;;4986130;28;20208;-54
2021/01/19 04:44:27;;;;;;;124.05;36.38;;;6.10;99.90;;;;;;4995220;28;20278;-54
2021/01/19 04:46:58;;;;;;;20.08;16.58;;;6.20;99.90;;;;;;4981782;28;20262;-54
2021/01/19 04:49:30;;;;;;;17.90;16.10;;;6.20;99.90;;;;;;4986764;28;20264;-54
2021/01/19 04:52:04;;;;;;;16.40;14.70;;;6.20;99.90;;;;;;4986800;28;20294;-54
2021/01/19 04:54:56;;;;;;;22.50;19.20;;;6.10;99.90;;;;;;4986880;28;20215;-54
2021/01/19 04:57:31;;;;;;;18.95;16.00;;;6.00;99.90;;;;;;4987935;28;20216;-54
2021/01/19 05:00:08;;;;;;;18.00;16.20;;;5.90;99.90;;;;;;5001127;28;20247;-54
2021/01/19 05:03:05;;;;;;;17.88;13.85;;;5.70;99.90;;;;;;4985703;28;20207;-55
2021/01/19 05:06:01;;;;;;;15.18;11.88;;;5.60;99.90;;;;;;4982529;28;21586;-55
2021/01/19 05:09:08;;;;;;;11.90;10.48;;;5.50;99.90;;;;;;4985996;28;20263;-54
2021/01/19 05:11:50;;;;;;;14.32;11.27;;;5.40;99.90;;;;;;4982319;28;20236;-53
2021/01/19 05:14:22;;;;;;;10.10;9.10;;;5.30;99.90;;;;;;4986288;28;20216;-54
2021/01/19 05:16:52;;;;;;;10.55;9.23;;;5.20;99.90;;;;;;4984088;28;20216;-53
2021/01/19 05:19:24;;;;;;;12.65;10.40;;;5.20;99.90;;;;;;4986017;28;20278;-54
2021/01/19 05:21:56;;;;;;;11.73;10.07;;;5.20;99.90;;;;;;4977930;28;20362;-53
2021/01/19 05:24:26;;;;;;;12.40;10.98;;;5.20;99.90;;;;;;5005277;28;20204;-53
2021/01/19 05:26:56;;;;;;;10.60;9.43;;;5.10;99.90;;;;;;4990413;28;20229;-50
2021/01/19 05:29:27;;;;;;;11.20;9.75;;;5.10;99.90;;;;;;4982317;28;20240;-52
2021/01/19 05:31:57;;;;;;;12.57;10.40;;;5.10;99.90;;;;;;4980723;28;20235;-48
2021/01/19 05:34:28;;;;;;;11.73;10.23;;;5.00;99.90;;;;;;4978492;28;20192;-52
2021/01/19 05:37:00;;;;;;;12.25;11.05;;;4.90;99.90;;;;;;4977677;28;20210;-53
2021/01/19 05:39:31;;;;;;;12.32;11.13;;;4.90;99.90;;;;;;4970406;28;20205;-52
2021/01/19 05:42:01;;;;;;;11.43;10.23;;;5.00;99.90;;;;;;4989489;28;20219;-51
2021/01/19 05:44:32;;;;;;;12.57;11.27;;;4.90;99.90;;;;;;4995767;28;20208;-52
2021/01/19 05:47:04;;;;;;;12.48;11.15;;;4.80;99.90;;;;;;4993938;28;20232;-52
2021/01/19 05:49:36;;;;;;;12.23;10.93;;;4.80;99.90;;;;;;4999672;28;20303;-53
2021/01/19 05:52:08;;;;;;;12.63;11.32;;;4.80;99.90;;;;;;5004841;28;20207;-54
2021/01/19 05:54:41;;;;;;;12.00;10.48;;;4.70;99.90;;;;;;4993055;28;20292;-52
2021/01/19 05:57:13;;;;;;;13.00;11.70;;;4.60;99.90;;;;;;4991648;28;20204;-49
2021/01/19 05:59:44;;;;;;;16.13;13.32;;;4.60;99.90;;;;;;4986868;28;20251;-54
2021/01/19 06:02:15;;;;;;;18.92;16.77;;;4.50;99.90;;;;;;4985026;28;20205;-53
2021/01/19 06:04:47;;;;;;;23.17;17.25;;;4.50;99.90;;;;;;4988827;28;20215;-51
2021/01/19 06:07:21;;;;;;;23.20;18.90;;;4.40;99.90;;;;;;4983558;28;20255;-52
2021/01/19 06:09:51;;;;;;;22.10;18.17;;;4.30;99.90;;;;;;4981344;28;20220;-49
2021/01/19 06:12:40;;;;;;;18.73;15.50;;;4.40;99.90;;;;;;4964790;29;20311;-53
2021/01/19 06:15:11;;;;;;;19.60;16.50;;;4.30;99.90;;;;;;4976307;28;20208;-50
2021/01/19 06:17:42;;;;;;;17.63;15.75;;;4.30;99.90;;;;;;4982525;28;20205;-53
2021/01/19 06:20:12;;;;;;;17.38;15.50;;;4.20;99.90;;;;;;4984749;28;20237;-48
2021/01/19 06:22:44;;;;;;;16.67;15.00;;;4.10;99.90;;;;;;4984681;28;20527;-50
2021/01/19 06:25:15;;;;;;;18.02;15.35;;;4.10;99.90;;;;;;4968937;28;20217;-52
2021/01/19 06:27:45;;;;;;;16.95;14.85;;;4.10;99.90;;;;;;4983417;28;20236;-52
2021/01/19 06:30:16;;;;;;;17.50;14.77;;;4.10;99.90;;;;;;4983996;28;20208;-53
2021/01/19 06:32:48;;;;;;;17.30;15.50;;;4.10;99.90;;;;;;4982847;28;20276;-52
2021/01/19 06:35:20;;;;;;;16.25;14.55;;;4.10;99.90;;;;;;4983602;28;20201;-49
2021/01/19 06:37:53;;;;;;;15.60;13.98;;;4.10;99.90;;;;;;4984278;28;20219;-53
2021/01/19 06:40:24;;;;;;;17.02;15.00;;;4.10;99.90;;;;;;4976830;28;20308;-50
2021/01/19 06:43:00;;;;;;;18.90;16.88;;;4.20;99.90;;;;;;4971019;28;20204;-52
2021/01/19 06:45:31;;;;;;;18.30;16.05;;;4.10;99.90;;;;;;4978676;28;20279;-51
2021/01/19 06:48:02;;;;;;;20.50;16.33;;;4.10;99.90;;;;;;4964677;29;20205;-50
2021/01/19 06:50:36;;;;;;;16.83;15.07;;;4.10;99.90;;;;;;4983567;28;20208;-51
2021/01/19 06:53:17;;;;;;;17.98;16.05;;;4.00;99.90;;;;;;4984257;28;20645;-50
2021/01/19 06:56:01;;;;;;;19.42;15.77;;;4.00;99.90;;;;;;4983941;28;20221;-51
2021/01/19 06:58:54;;;;;;;18.30;14.98;;;3.90;99.90;;;;;;4981301;28;20272;-52
2021/01/19 07:01:25;;;;;;;17.00;14.30;;;4.00;99.90;;;;;;4973855;28;20216;-53
2021/01/19 07:04:08;;;;;;;19.58;15.43;;;4.00;99.90;;;;;;4979561;28;20232;-52
2021/01/19 07:07:06;;;;;;;16.45;14.40;;;4.00;99.90;;;;;;4984085;28;20256;-53
2021/01/19 07:10:15;;;;;;;18.40;13.63;;;4.00;99.90;;;;;;4984084;28;20565;-52
2021/01/19 07:13:06;;;;;;;15.63;14.02;;;4.10;99.90;;;;;;4989944;28;20204;-53
2021/01/19 07:16:11;;;;;;;20.05;15.18;;;4.00;99.90;;;;;;4977409;28;20223;-53
2021/01/19 07:19:17;;;;;;;15.65;13.75;;;4.10;99.90;;;;;;4979070;28;20598;-50
2021/01/19 07:22:17;;;;;;;13.57;12.25;;;4.00;99.90;;;;;;4982155;28;20214;-49
2021/01/19 07:24:51;;;;;;;19.40;13.55;;;4.00;99.90;;;;;;4984023;28;20204;-51
2021/01/19 07:27:25;;;;;;;15.10;12.32;;;4.00;99.90;;;;;;4982816;28;20236;-49
2021/01/19 07:30:09;;;;;;;15.85;12.32;;;4.00;99.90;;;;;;4997260;28;20199;-53
2021/01/19 07:32:40;;;;;;;15.32;12.65;;;4.00;99.90;;;;;;4983353;28;20329;-52
2021/01/19 07:35:13;;;;;;;14.35;12.88;;;4.00;99.90;;;;;;4974746;28;20210;-51
2021/01/19 07:37:44;;;;;;;17.20;13.27;;;3.90;99.90;;;;;;4974263;28;20205;-53
2021/01/19 07:40:21;;;;;;;15.82;11.88;;;3.90;99.90;;;;;;4983363;28;20209;-50
2021/01/19 07:42:54;;;;;;;14.95;12.07;;;3.90;99.90;;;;;;4982948;28;20212;-50
2021/01/19 07:45:33;;;;;;;14.70;12.75;;;3.90;99.90;;;;;;4985789;28;20216;-49
2021/01/19 07:48:08;;;;;;;15.52;12.60;;;3.90;99.90;;;;;;4983660;28;20239;-51
2021/01/19 07:50:43;;;;;;;14.55;12.43;;;3.90;99.90;;;;;;4983729;28;20211;-54
2021/01/19 07:53:13;;;;;;;14.10;12.63;;;4.00;99.90;;;;;;4984257;28;20200;-51
2021/01/19 07:55:45;;;;;;;13.25;11.80;;;4.00;99.90;;;;;;4985558;28;20236;-51
2021/01/19 07:58:18;;;;;;;14.35;11.85;;;3.90;99.90;;;;;;4992960;28;20203;-51
2021/01/19 08:00:58;;;;;;;14.13;11.52;;;3.90;99.90;;;;;;5000781;28;20584;-49
2021/01/19 08:03:29;;;;;;;14.65;13.07;;;3.90;99.90;;;;;;4994114;28;20227;-53
2021/01/19 08:06:10;;;;;;;17.70;12.40;;;3.80;99.90;;;;;;4976000;28;20232;-53
2021/01/19 08:08:40;;;;;;;15.73;12.07;;;3.80;99.90;;;;;;4983579;28;20200;-53
2021/01/19 08:11:23;;;;;;;14.63;13.10;;;3.80;99.90;;;;;;4983337;28;20273;-54
2021/01/19 08:14:13;;;;;;;13.65;11.88;;;3.70;99.90;;;;;;4985361;28;20216;-50
2021/01/19 08:16:52;;;;;;;14.88;12.57;;;3.60;99.90;;;;;;4983701;28;20680;-54
2021/01/19 08:19:25;;;;;;;14.95;12.27;;;3.60;99.90;;;;;;4985557;28;20218;-52
2021/01/19 08:22:10;;;;;;;16.08;12.50;;;3.50;99.90;;;;;;4996556;28;20222;-53
2021/01/19 08:24:45;;;;;;;14.55;11.50;;;3.60;99.90;;;;;;4981406;28;20215;-50
2021/01/19 08:27:20;;;;;;;13.70;11.40;;;3.50;99.90;;;;;;4992208;28;20227;-48
2021/01/19 08:30:17;;;;;;;15.00;11.18;;;3.50;99.90;;;;;;5002919;28;20236;-52
2021/01/19 08:32:49;;;;;;;13.27;10.98;;;3.50;99.90;;;;;;5002214;28;20283;-48
2021/01/19 08:35:22;;;;;;;15.57;11.35;;;3.50;99.90;;;;;;5002612;28;20227;-49
2021/01/19 08:37:54;;;;;;;14.52;11.70;;;3.40;99.90;;;;;;4995517;28;20282;-53
2021/01/19 08:40:26;;;;;;;12.73;11.27;;;3.40;99.90;;;;;;4997893;28;20204;-51
2021/01/19 08:42:57;;;;;;;12.85;10.88;;;3.40;99.90;;;;;;4982236;28;20228;-51
2021/01/19 08:45:29;;;;;;;12.23;10.90;;;3.40;99.90;;;;;;4964815;28;20225;-47
2021/01/19 08:48:02;;;;;;;13.32;11.93;;;3.30;99.90;;;;;;5002179;28;20250;-53
2021/01/19 08:50:37;;;;;;;12.52;11.25;;;3.30;99.90;;;;;;4990298;28;20216;-53
2021/01/19 08:53:11;;;;;;;13.45;11.77;;;3.30;99.90;;;;;;4992291;28;20200;-51
2021/01/19 08:55:44;;;;;;;12.93;11.50;;;3.30;99.90;;;;;;4987099;28;20209;-53
2021/01/19 08:58:22;;;;;;;10.48;9.05;;;3.20;99.90;;;;;;4970621;28;20205;-52
2021/01/19 09:00:54;;;;;;;12.82;10.25;;;3.20;99.90;;;;;;4972058;28;20231;-52
2021/01/19 09:03:26;;;;;;;14.00;11.00;;;3.20;99.90;;;;;;4991562;28;20235;-51
2021/01/19 09:06:08;;;;;;;13.27;9.50;;;3.20;99.90;;;;;;5005486;28;20231;-48
2021/01/19 09:08:43;;;;;;;12.50;11.18;;;3.20;99.90;;;;;;4987937;28;20212;-53
2021/01/19 09:11:13;;;;;;;12.60;10.43;;;3.20;99.90;;;;;;4986476;28;20232;-50
2021/01/19 09:13:50;;;;;;;12.60;10.68;;;3.20;99.90;;;;;;4986658;28;20188;-51
2021/01/19 09:16:25;;;;;;;14.00;11.25;;;3.20;99.90;;;;;;4994054;28;20299;-52
2021/01/19 09:19:02;;;;;;;13.10;11.30;;;3.20;99.90;;;;;;5003973;28;20692;-50
2021/01/19 09:21:34;;;;;;;11.70;10.48;;;3.30;99.90;;;;;;4995960;28;20207;-49
2021/01/19 09:24:13;;;;;;;11.38;9.98;;;3.20;99.90;;;;;;4998254;28;20258;-51
2021/01/19 09:29:34;;;;;;;12.63;10.38;;;3.20;99.90;;;;;;4999575;28;20212;-47
2021/01/19 09:32:12;;;;;;;10.98;9.88;;;3.10;99.90;;;;;;4991612;28;20250;-49
2021/01/19 09:34:47;;;;;;;11.60;10.40;;;3.10;99.90;;;;;;4988751;28;20192;-51
2021/01/19 09:37:22;;;;;;;12.95;10.50;;;3.10;99.90;;;;;;4992420;28;20281;-52
2021/01/19 09:39:54;;;;;;;15.05;11.57;;;3.00;99.90;;;;;;5003297;28;20204;-53
2021/01/19 09:42:25;;;;;;;14.75;11.05;;;3.00;99.90;;;;;;4984816;28;20209;-51
2021/01/19 09:44:55;;;;;;;15.63;12.80;;;3.00;99.90;;;;;;4975016;28;20314;-53
2021/01/19 09:47:26;;;;;;;14.77;12.70;;;3.10;99.90;;;;;;4988079;28;20581;-53
2021/01/19 09:49:58;;;;;;;21.27;13.10;;;3.30;99.90;;;;;;4995179;28;20227;-53
2021/01/19 09:52:32;;;;;;;15.85;13.27;;;3.30;99.90;;;;;;5004640;28;20239;-52
2021/01/19 09:55:15;;;;;;;14.88;13.02;;;3.30;99.90;;;;;;4992584;28;20219;-51
2021/01/19 09:57:57;;;;;;;15.60;13.57;;;3.30;99.90;;;;;;4985123;28;20216;-51
2021/01/19 10:00:38;;;;;;;14.80;11.82;;;3.30;99.90;;;;;;4985833;28;20217;-51
2021/01/19 10:03:12;;;;;;;16.58;13.15;;;3.40;99.90;;;;;;4989474;28;20212;-50
2021/01/19 10:05:46;;;;;;;16.25;13.63;;;3.50;99.90;;;;;;4995171;28;20200;-52
2021/01/19 10:08:24;;;;;;;16.60;13.38;;;3.50;99.90;;;;;;5005059;28;20314;-53
2021/01/19 10:11:13;;;;;;;16.95;12.82;;;3.50;99.90;;;;;;4997277;28;20725;-50
2021/01/19 10:13:43;;;;;;;20.17;14.02;;;3.50;99.90;;;;;;4985973;28;20240;-53
2021/01/19 10:16:13;;;;;;;15.43;12.35;;;3.50;99.90;;;;;;4997597;28;20200;-52
2021/01/19 10:18:43;;;;;;;15.55;13.90;;;3.40;99.90;;;;;;4989129;28;20196;-50
2021/01/19 10:21:25;;;;;;;18.85;14.68;;;3.40;99.90;;;;;;4983583;28;20609;-47
2021/01/19 10:24:04;;;;;;;17.55;14.48;;;3.40;99.90;;;;;;4991964;28;20211;-51
2021/01/19 10:26:34;;;;;;;17.95;15.73;;;3.40;99.90;;;;;;4999640;28;20244;-50
2021/01/19 10:29:06;;;;;;;18.35;15.13;;;3.40;99.90;;;;;;4985047;28;20216;-52
2021/01/19 10:31:47;;;;;;;18.25;14.90;;;3.40;99.90;;;;;;4984512;28;20271;-52
2021/01/19 10:34:24;;;;;;;14.90;13.10;;;3.40;99.90;;;;;;4985212;28;20212;-49
2021/01/19 10:36:57;;;;;;;17.38;13.07;;;3.40;99.90;;;;;;4997869;28;20288;-49
2021/01/19 10:39:30;;;;;;;17.15;13.82;;;3.30;99.90;;;;;;4984885;28;20259;-48
2021/01/19 10:42:00;;;;;;;18.48;13.63;;;3.20;99.90;;;;;;4997496;28;20204;-46
2021/01/19 10:44:31;;;;;;;15.50;12.65;;;3.10;99.90;;;;;;4994281;28;20204;-48
2021/01/19 10:47:03;;;;;;;14.35;12.43;;;3.10;99.90;;;;;;4983956;28;20286;-49
2021/01/19 10:49:33;;;;;;;17.80;13.32;;;3.00;99.90;;;;;;4996306;28;20291;-48
2021/01/19 10:52:05;;;;;;;16.25;13.30;;;3.00;99.90;;;;;;5002790;28;20219;-53
2021/01/19 10:54:35;;;;;;;14.45;12.60;;;3.00;99.90;;;;;;5003757;28;20230;-48
2021/01/19 10:57:08;;;;;;;16.63;12.82;;;3.00;99.90;;;;;;4989514;28;20572;-52
2021/01/19 10:59:38;;;;;;;14.73;12.70;;;3.00;99.90;;;;;;4986870;28;20208;-48
2021/01/19 11:02:09;;;;;;;13.55;12.20;;;3.00;99.90;;;;;;5003212;28;20212;-48
2021/01/19 11:04:39;;;;;;;15.43;13.27;;;3.00;99.90;;;;;;4988308;28;20236;-51
2021/01/19 11:07:16;;;;;;;17.17;13.05;;;3.00;99.90;;;;;;4985902;28;20589;-50
2021/01/19 11:09:46;;;;;;;15.75;13.38;;;3.00;99.90;;;;;;4984108;28;20259;-49
2021/01/19 11:12:18;;;;;;;17.15;12.93;;;3.10;99.90;;;;;;4983443;28;20236;-50
2021/01/19 11:14:50;;;;;;;16.67;13.40;;;3.10;99.90;;;;;;4994741;28;20278;-53
2021/01/19 11:17:25;;;;;;;20.33;14.77;;;3.00;99.90;;;;;;4988363;28;20204;-49
2021/01/19 11:19:57;;;;;;;16.90;14.20;;;3.00;99.90;;;;;;4984219;28;20212;-53
2021/01/19 11:22:31;;;;;;;23.13;16.67;;;3.10;99.90;;;;;;4976049;28;20272;-51
2021/01/19 11:25:02;;;;;;;17.83;14.40;;;3.10;99.90;;;;;;4978239;28;20237;-49
2021/01/19 11:27:32;;;;;;;17.65;14.63;;;3.10;99.90;;;;;;4983426;28;20237;-51
2021/01/19 11:30:02;;;;;;;21.83;14.43;;;3.10;99.90;;;;;;4989084;28;20197;-50
2021/01/19 11:32:32;;;;;;;18.92;16.40;;;3.00;99.90;;;;;;4983429;28;20197;-48
2021/01/19 11:35:02;;;;;;;16.85;14.52;;;3.10;99.90;;;;;;4983636;28;20276;-49
2021/01/19 11:37:34;;;;;;;20.83;15.75;;;3.00;99.90;;;;;;4994868;28;20200;-46
2021/01/19 11:40:05;;;;;;;17.48;13.90;;;3.00;99.90;;;;;;4998768;28;20189;-49
2021/01/19 11:42:36;;;;;;;18.52;16.02;;;3.10;99.90;;;;;;4986084;28;20185;-47
2021/01/19 11:45:07;;;;;;;17.75;14.55;;;3.00;99.90;;;;;;4990076;28;20290;-50
2021/01/19 11:47:39;;;;;;;17.13;14.07;;;3.10;99.90;;;;;;5002657;28;20298;-48
2021/01/19 11:50:10;;;;;;;16.08;14.38;;;3.10;99.90;;;;;;5003344;28;20211;-51
2021/01/19 11:52:43;;;;;;;17.20;12.88;;;3.00;99.90;;;;;;4994925;28;20207;-49
2021/01/19 11:55:13;;;;;;;14.90;12.73;;;3.00;99.90;;;;;;5002845;28;20287;-51
2021/01/19 11:57:43;;;;;;;15.05;13.15;;;2.90;99.90;;;;;;4987384;28;20196;-47
2021/01/19 12:00:14;;;;;;;17.15;13.48;;;2.80;99.90;;;;;;4985500;28;20219;-49
2021/01/19 12:02:47;;;;;;;14.73;13.00;;;2.80;99.90;;;;;;4986173;28;20231;-46
2021/01/19 12:08:02;;;;;;;17.40;13.00;;;2.70;99.90;;;;;;4981893;28;20255;-47
2021/01/19 12:10:33;;;;;;;16.63;13.00;;;2.70;99.90;;;;;;4982915;28;20268;-51
2021/01/19 12:13:07;;;;;;;15.43;12.80;;;2.60;99.90;;;;;;4983361;28;20204;-48
2021/01/19 12:15:37;;;;;;;15.93;12.68;;;2.60;99.90;;;;;;4983131;28;20243;-50
2021/01/19 12:18:07;;;;;;;16.20;11.43;;;2.70;99.90;;;;;;4995152;28;20223;-51
2021/01/19 12:20:39;;;;;;;13.52;11.93;;;2.60;99.90;;;;;;4983323;28;20209;-51
2021/01/19 12:23:10;;;;;;;14.95;12.38;;;2.60;99.90;;;;;;4983081;28;20210;-50
2021/01/19 12:25:43;;;;;;;16.35;11.88;;;2.60;99.90;;;;;;4982790;28;20292;-48
2021/01/19 12:28:13;;;;;;;18.40;13.02;;;2.60;99.90;;;;;;4987246;28;20298;-50
2021/01/19 12:30:42;;;;;;;15.25;13.10;;;2.60;99.90;;;;;;4988451;28;20208;-52
2021/01/19 12:33:13;;;;;;;15.35;12.98;;;2.60;99.90;;;;;;5006428;28;20254;-49
2021/01/19 12:35:46;;;;;;;12.90;11.60;;;2.60;99.90;;;;;;5006413;28;20247;-50
2021/01/19 12:38:21;;;;;;;13.35;11.70;;;2.50;99.90;;;;;;5003815;28;20576;-48
2021/01/19 12:40:52;;;;;;;15.80;13.10;;;2.50;99.90;;;;;;5005995;28;20249;-49
2021/01/19 12:43:22;;;;;;;14.82;12.15;;;2.50;99.90;;;;;;5006797;28;20197;-51
2021/01/19 12:45:52;;;;;;;12.27;10.65;;;2.50;99.90;;;;;;5006038;28;20274;-51
2021/01/19 12:48:22;;;;;;;14.65;11.75;;;2.40;99.90;;;;;;5006044;28;20236;-49
2021/01/19 12:50:52;;;;;;;15.32;12.93;;;2.40;99.90;;;;;;5003443;28;20207;-49
2021/01/19 12:53:23;;;;;;;16.75;12.38;;;2.50;99.90;;;;;;4977383;28;20335;-52
2021/01/19 12:55:53;;;;;;;14.95;12.65;;;2.50;99.90;;;;;;4985943;28;20204;-49
2021/01/19 12:58:23;;;;;;;15.48;13.27;;;2.60;99.90;;;;;;4988133;28;20208;-46
2021/01/19 13:00:53;;;;;;;14.23;12.10;;;2.60;99.90;;;;;;5000249;28;20639;-46
2021/01/19 13:03:25;;;;;;;18.48;13.85;;;2.60;99.90;;;;;;4990192;28;20209;-48
2021/01/19 13:05:57;;;;;;;15.15;11.98;;;2.60;99.90;;;;;;4970025;28;20229;-49
2021/01/19 13:08:28;;;;;;;13.57;11.27;;;2.60;99.90;;;;;;4986311;28;20631;-50
2021/01/19 13:11:05;;;;;;;15.18;11.85;;;2.70;99.90;;;;;;4978804;28;20236;-50
2021/01/19 13:13:35;;;;;;;15.45;13.00;;;2.70;99.90;;;;;;4986128;28;20714;-51
2021/01/19 13:16:06;;;;;;;13.60;11.85;;;2.70;99.90;;;;;;4985725;28;20548;-46
2021/01/19 13:18:36;;;;;;;14.32;12.48;;;2.60;99.90;;;;;;4985779;28;20209;-49
2021/01/19 13:21:06;;;;;;;14.50;12.15;;;2.50;99.90;;;;;;4986040;28;20670;-49
2021/01/19 13:23:40;;;;;;;12.90;10.45;;;2.50;99.90;;;;;;4985544;28;20271;-50